This is the latest recevied weather packets stored in our database for station/object OK1FET-14. If no packets are shown the sender has not sent any weather packets the latest 10 day(s).
| Time | Temp. | Humidity | Pressure | Rain* | Wind** | Luminosity | Snow |
|---|---|---|---|---|---|---|---|
| 1787996402 | 18.33° C | 72% | 1018.8 hPa | - | - | - | - |
| 1787996122 | 17.78° C | 84% | 1018.8 hPa | - | - | - | - |
| 1787996122 | 17.78° C | 84% | 1018.8 hPa | - | - | - | - |
| 1787996122 | 17.78° C | 84% | 1018.8 hPa | - | - | - | - |
| 1787996122 | 17.78° C | 84% | 1018.8 hPa | - | - | - | - |
| 1787995841 | 16.67° C | 92% | 1018.7 hPa | - | - | - | - |
| 1787995841 | 16.67° C | 92% | 1018.7 hPa | - | - | - | - |
| 1787995560 | 17.78° C | 90% | 1018.8 hPa | - | - | - | - |
| 1787995560 | 17.78° C | 90% | 1018.8 hPa | - | - | - | - |
| 1787995560 | 17.78° C | 90% | 1018.8 hPa | - | - | - | - |
| 1787995560 | 17.78° C | 90% | 1018.8 hPa | - | - | - | - |
| 1787995281 | 17.22° C | 91% | 1019 hPa | - | - | - | - |
| 1787995279 | 17.22° C | 91% | 1019 hPa | - | - | - | - |
| 1787995279 | 17.22° C | 91% | 1019 hPa | - | - | - | - |
| 1787995279 | 17.22° C | 91% | 1019 hPa | - | - | - | - |
| 1787994999 | 17.78° C | 92% | 1018.9 hPa | - | - | - | - |
| 1787994999 | 17.78° C | 92% | 1018.9 hPa | - | - | - | - |
| 1787994998 | 17.78° C | 92% | 1018.9 hPa | - | - | - | - |
| 1787994718 | 18.89° C | 91% | 1018.9 hPa | - | - | - | - |
| 1787994718 | 18.89° C | 91% | 1018.9 hPa | - | - | - | - |
| 1787994718 | 18.89° C | 91% | 1018.9 hPa | - | - | - | - |
| 1787994437 | 18.89° C | 87% | 1018.8 hPa | - | - | - | - |
| 1787994437 | 18.89° C | 87% | 1018.8 hPa | - | - | - | - |
| 1787994437 | 18.89° C | 87% | 1018.8 hPa | - | - | - | - |
| 1787994156 | 18.89° C | 90% | 1018.9 hPa | - | - | - | - |
* Rain since midnight (hover to see other rain measurements)
** Current wind speed in m/s (hover to see current wind gust speed)